Relevés horaires Laegern (Suisse)


Relevés horaires à Laegern - Lundi 09 Août 2021
Heure UTC1 Température [°C] Vent [km/h] Hum. [%] Pres.4 [hPa] Visi. [Km] Nébu. [octa] Préc.5 [mm] Cond.
2m. Res. Ros. Dir.2 Vit. Moy. Raf.3
23:00 16.9 16.9 7.7 SO 0.0 -- 14.8 55 850(0.0/3h) -- -- -- --
22:00 16.9 16.9 7.6 SO 0.0 -- 14.8 54 850(0.2/3h) -- -- -- --
21:00 16.7 16.7 8.3 SO 0.0 -- 18.5 58 850(0.4/3h) -- -- -- --
20:00 16.7 16.7 9.5 SSO 0.0 -- 18.5 62 850(0.3/3h) -- -- -- --
19:00 16.6 16.6 9.2 SO 0.0 -- 18.5 62 850(-0.2/3h) -- -- -- --
18:00 16.8 16.8 8.9 SSO 0.0 -- 24.1 60 850(-0.6/3h) -- -- -- --
17:00 16.8 16.8 9.4 SSO 0.0 -- 24.1 62 850(-0.5/3h) -- -- -- --
16:00 17.1 17.1 9.6 SSO 0.0 -- 22.2 61 850(-0.1/3h) -- -- -- --
15:00 17.2 17.2 9.6 SSO 0.0 -- 24.1 61 850(0.2/3h) -- -- -- --
14:00 17.1 17.1 8.0 SSO 0.0 -- 20.4 55 850(0.3/3h) -- -- -- --
13:00 18.0 18.0 8.4 S 0.0 -- 24.1 53 850(0.3/3h) -- -- -- --
12:00 17.8 17.8 8.6 S 0.0 -- 24.1 55 850(0.5/3h) -- -- -- --
11:00 16.8 16.8 9.1 SSO 0.0 -- 14.8 60 850(0.8/3h) -- -- -- --
10:00 16.4 16.4 9.5 S 0.0 -- 11.1 64 850(0.8/3h) -- -- -- --
09:00 15.7 15.7 11.2 SSE 0.0 -- 16.7 75 850(0.4/3h) -- -- -- --
08:00 15.0 15.0 10.7 SSE 0.0 -- 13.0 75 850(0.6/3h) -- -- -- --
07:00 14.1 14.1 9.4 S 0.0 -- 16.7 73 850(0.3/3h) -- -- -- --
06:00 13.1 13.1 8.8 SSE 0.0 -- 14.8 75 850(0.3/3h) -- -- -- --
05:00 12.5 12.5 8.3 SSE 0.0 -- 14.8 76 850(-0.2/3h) -- -- -- --
04:00 13.0 13.0 7.9 SSE 0.0 -- 13.0 71 850(0.1/3h) -- -- -- --
03:00 12.6 12.6 9.4 SSE 0.0 -- 9.3 81 850(-0.3/3h) -- -- -- --
02:00 13.4 13.4 7.9 S 0.0 -- 9.3 69 850(-0.3/3h) -- -- -- --
01:00 13.7 13.7 7.9 SO 0.0 -- 7.4 68 850(-0.2/3h) -- -- -- --
00:00 13.4 13.4 8.2 OSO 0.0 -- 27.8 71 850(0.1/3h) -- -- -- --

1 Coordinated Universal Time. Actuellement il est 08:00 locale et 06:00 UTC.

2 Le vent souffle depuis la direction indiquée vers la direction oposée.

3 Les rafales max. sont disponible 40 min après l'heure du relevé.

4 Pour les stations d'altitude (plus de 600m) le géopotentiel du niveau le plus proche de la pression obligatoire est indiqué.

5 Les stations disposant d'un diffuseur peuvent indiquer "trace". Cela signifie que des précipitations ont touchés le sol mais que la quantité est inférieure à 0.1 mm.

Copyright

Les données affichées sur cette page sont la propriété exclusive de Météo Suisse.

Récapitulatif de la journée
Température [°C] Vent [km/h] Ensoleillement4 [h] Precipitations totale5 [mm] Pression [Hpa]
Min1 Max.2 Moy.3 Max. Min Max.
12.5 18.4 0 27.8 7 h 18 min 0 850.0 850.0

1 Température minimale relevée entre 18:00 UTC la veille et 18:00 UTC le jour donné.

2 Température maximale relevée entre 06:00 UTC le jour donné et 06:00 UTC le lendemain.

3 Vent moyen de la journée basé sur les relevés horaires.

4 Ensoleillement en heures relevé entre 06:00 UTC la veille et 06:00 UTC le jour donné.

5 Précipitations totales tombées entre 06:00 UTC la jour donné et 06:00 UTC le lendemain.

Graphiques horaires